sensor_id;sensor_type;location;lat;lon;timestamp;P1;durP1;ratioP1;P2;durP2;ratioP2
56051;SDS011;41919;42.648;23.384;2023-03-01T04:37:32;2.42;;;1.67;;
56051;SDS011;41919;42.648;23.384;2023-03-01T04:39:58;1.52;;;1.40;;
56051;SDS011;41919;42.648;23.384;2023-03-01T04:42:23;2.78;;;1.77;;
56051;SDS011;41919;42.648;23.384;2023-03-01T04:44:49;2.58;;;1.83;;
56051;SDS011;41919;42.648;23.384;2023-03-01T04:47:16;2.90;;;1.88;;
56051;SDS011;41919;42.648;23.384;2023-03-01T04:49:42;2.28;;;1.63;;
56051;SDS011;41919;42.648;23.384;2023-03-01T04:52:08;2.40;;;1.90;;
56051;SDS011;41919;42.648;23.384;2023-03-01T04:54:34;3.60;;;1.80;;
56051;SDS011;41919;42.648;23.384;2023-03-01T04:57:01;1.63;;;1.42;;
56051;SDS011;41919;42.648;23.384;2023-03-01T04:59:27;1.95;;;1.60;;
56051;SDS011;41919;42.648;23.384;2023-03-01T05:01:54;1.33;;;1.23;;
56051;SDS011;41919;42.648;23.384;2023-03-01T05:04:21;2.25;;;1.15;;
56051;SDS011;41919;42.648;23.384;2023-03-01T05:06:50;1.83;;;1.30;;
56051;SDS011;41919;42.648;23.384;2023-03-01T05:09:15;2.83;;;1.67;;
56051;SDS011;41919;42.648;23.384;2023-03-01T05:11:41;3.78;;;1.80;;
56051;SDS011;41919;42.648;23.384;2023-03-01T05:14:07;2.78;;;1.30;;
56051;SDS011;41919;42.648;23.384;2023-03-01T05:16:33;3.00;;;1.70;;
56051;SDS011;41919;42.648;23.384;2023-03-01T05:19:01;1.48;;;1.27;;
56051;SDS011;41919;42.648;23.384;2023-03-01T05:21:36;2.80;;;1.73;;
56051;SDS011;41919;42.648;23.384;2023-03-01T05:24:22;2.35;;;1.80;;
56051;SDS011;41919;42.648;23.384;2023-03-01T05:26:48;15.45;;;6.55;;
56051;SDS011;41919;42.648;23.384;2023-03-01T05:29:13;4.22;;;2.22;;
56051;SDS011;41919;42.648;23.384;2023-03-01T05:31:39;1.67;;;1.50;;
56051;SDS011;41919;42.648;23.384;2023-03-01T05:34:04;2.92;;;1.70;;
56051;SDS011;41919;42.648;23.384;2023-03-01T05:36:31;1.42;;;1.30;;
56051;SDS011;41919;42.648;23.384;2023-03-01T05:38:56;2.13;;;1.33;;
56051;SDS011;41919;42.648;23.384;2023-03-01T05:41:22;2.20;;;1.70;;
56051;SDS011;41919;42.648;23.384;2023-03-01T05:43:47;1.85;;;1.65;;
56051;SDS011;41919;42.648;23.384;2023-03-01T05:46:13;4.80;;;2.90;;
56051;SDS011;41919;42.648;23.384;2023-03-01T05:48:40;4.78;;;2.53;;
56051;SDS011;41919;42.648;23.384;2023-03-01T05:51:05;1.95;;;1.50;;
56051;SDS011;41919;42.648;23.384;2023-03-01T05:53:31;3.40;;;1.67;;
56051;SDS011;41919;42.648;23.384;2023-03-01T05:55:56;3.38;;;1.88;;
56051;SDS011;41919;42.648;23.384;2023-03-01T05:58:22;2.10;;;1.52;;
56051;SDS011;41919;42.648;23.384;2023-03-01T06:00:48;2.70;;;1.40;;
56051;SDS011;41919;42.648;23.384;2023-03-01T06:03:15;2.28;;;1.48;;
56051;SDS011;41919;42.648;23.384;2023-03-01T06:05:42;13.30;;;6.75;;
56051;SDS011;41919;42.648;23.384;2023-03-01T06:08:09;7.47;;;3.92;;
56051;SDS011;41919;42.648;23.384;2023-03-01T06:10:35;2.90;;;1.90;;
56051;SDS011;41919;42.648;23.384;2023-03-01T06:13:01;2.55;;;1.90;;
56051;SDS011;41919;42.648;23.384;2023-03-01T06:15:27;2.17;;;1.50;;
56051;SDS011;41919;42.648;23.384;2023-03-01T06:17:53;1.90;;;1.73;;
56051;SDS011;41919;42.648;23.384;2023-03-01T06:20:23;2.90;;;2.00;;
56051;SDS011;41919;42.648;23.384;2023-03-01T06:22:50;3.00;;;1.90;;
56051;SDS011;41919;42.648;23.384;2023-03-01T06:25:17;3.15;;;2.28;;
56051;SDS011;41919;42.648;23.384;2023-03-01T06:27:44;2.22;;;2.03;;
56051;SDS011;41919;42.648;23.384;2023-03-01T06:30:11;4.72;;;2.03;;
56051;SDS011;41919;42.648;23.384;2023-03-01T06:32:40;4.00;;;2.45;;
56051;SDS011;41919;42.648;23.384;2023-03-01T06:35:07;2.15;;;1.80;;
56051;SDS011;41919;42.648;23.384;2023-03-01T06:37:33;3.90;;;2.20;;
56051;SDS011;41919;42.648;23.384;2023-03-01T06:40:00;2.65;;;1.40;;
56051;SDS011;41919;42.648;23.384;2023-03-01T06:42:29;2.42;;;1.65;;
56051;SDS011;41919;42.648;23.384;2023-03-01T06:44:55;2.75;;;2.20;;
56051;SDS011;41919;42.648;23.384;2023-03-01T06:47:20;2.03;;;1.40;;
56051;SDS011;41919;42.648;23.384;2023-03-01T06:49:46;2.13;;;1.92;;
56051;SDS011;41919;42.648;23.384;2023-03-01T06:52:11;2.80;;;1.40;;
56051;SDS011;41919;42.648;23.384;2023-03-01T06:54:36;1.90;;;1.60;;
56051;SDS011;41919;42.648;23.384;2023-03-01T06:57:02;1.45;;;1.05;;
56051;SDS011;41919;42.648;23.384;2023-03-01T06:59:27;1.90;;;1.52;;
56051;SDS011;41919;42.648;23.384;2023-03-01T07:01:53;2.22;;;1.58;;
56051;SDS011;41919;42.648;23.384;2023-03-01T07:04:18;3.28;;;1.67;;
56051;SDS011;41919;42.648;23.384;2023-03-01T07:06:44;2.58;;;1.50;;
56051;SDS011;41919;42.648;23.384;2023-03-01T07:09:09;1.92;;;1.63;;
56051;SDS011;41919;42.648;23.384;2023-03-01T07:11:35;4.78;;;2.10;;
56051;SDS011;41919;42.648;23.384;2023-03-01T07:14:00;4.30;;;1.92;;
56051;SDS011;41919;42.648;23.384;2023-03-01T07:16:25;1.77;;;1.27;;
56051;SDS011;41919;42.648;23.384;2023-03-01T07:18:51;2.33;;;1.58;;
56051;SDS011;41919;42.648;23.384;2023-03-01T07:21:16;2.53;;;1.08;;
56051;SDS011;41919;42.648;23.384;2023-03-01T07:23:42;3.42;;;1.60;;
56051;SDS011;41919;42.648;23.384;2023-03-01T07:26:07;2.17;;;1.50;;
56051;SDS011;41919;42.648;23.384;2023-03-01T07:28:33;1.83;;;1.13;;
56051;SDS011;41919;42.648;23.384;2023-03-01T07:31:04;2.55;;;1.52;;
56051;SDS011;41919;42.648;23.384;2023-03-01T07:33:31;5.70;;;1.70;;
56051;SDS011;41919;42.648;23.384;2023-03-01T07:35:57;2.33;;;1.40;;
56051;SDS011;41919;42.648;23.384;2023-03-01T07:38:23;1.73;;;1.60;;
56051;SDS011;41919;42.648;23.384;2023-03-01T07:40:49;1.42;;;1.33;;
56051;SDS011;41919;42.648;23.384;2023-03-01T07:43:14;1.52;;;1.00;;
56051;SDS011;41919;42.648;23.384;2023-03-01T07:45:40;1.88;;;1.42;;
56051;SDS011;41919;42.648;23.384;2023-03-01T07:48:05;1.40;;;1.05;;
56051;SDS011;41919;42.648;23.384;2023-03-01T07:50:30;1.10;;;1.00;;
56051;SDS011;41919;42.648;23.384;2023-03-01T07:52:56;1.95;;;1.02;;
56051;SDS011;41919;42.648;23.384;2023-03-01T07:55:22;1.48;;;1.10;;
56051;SDS011;41919;42.648;23.384;2023-03-01T07:57:47;1.75;;;1.30;;
56051;SDS011;41919;42.648;23.384;2023-03-01T08:00:13;1.40;;;1.20;;
56051;SDS011;41919;42.648;23.384;2023-03-01T08:02:39;2.50;;;1.40;;
56051;SDS011;41919;42.648;23.384;2023-03-01T08:05:06;1.35;;;1.05;;
56051;SDS011;41919;42.648;23.384;2023-03-01T08:07:33;2.53;;;1.08;;
56051;SDS011;41919;42.648;23.384;2023-03-01T08:09:58;2.80;;;1.30;;
56051;SDS011;41919;42.648;23.384;2023-03-01T08:12:23;2.40;;;1.92;;
56051;SDS011;41919;42.648;23.384;2023-03-01T08:14:49;1.48;;;1.30;;
56051;SDS011;41919;42.648;23.384;2023-03-01T08:17:14;1.42;;;1.33;;
56051;SDS011;41919;42.648;23.384;2023-03-01T08:19:40;1.73;;;1.48;;
56051;SDS011;41919;42.648;23.384;2023-03-01T08:22:05;2.42;;;1.75;;
56051;SDS011;41919;42.648;23.384;2023-03-01T08:24:31;2.53;;;1.92;;
56051;SDS011;41919;42.648;23.384;2023-03-01T08:26:56;2.60;;;1.67;;
56051;SDS011;41919;42.648;23.384;2023-03-01T08:29:22;1.65;;;1.55;;
56051;SDS011;41919;42.648;23.384;2023-03-01T08:31:49;1.92;;;1.70;;
56051;SDS011;41919;42.648;23.384;2023-03-01T08:34:15;1.48;;;1.35;;
56051;SDS011;41919;42.648;23.384;2023-03-01T08:36:43;2.00;;;1.52;;
56051;SDS011;41919;42.648;23.384;2023-03-01T08:39:10;2.72;;;1.88;;
56051;SDS011;41919;42.648;23.384;2023-03-01T08:41:40;1.88;;;1.38;;
56051;SDS011;41919;42.648;23.384;2023-03-01T08:44:07;2.17;;;1.70;;
56051;SDS011;41919;42.648;23.384;2023-03-01T08:46:38;3.20;;;1.90;;
56051;SDS011;41919;42.648;23.384;2023-03-01T08:49:10;3.30;;;1.77;;
56051;SDS011;41919;42.648;23.384;2023-03-01T08:51:37;2.45;;;2.25;;
56051;SDS011;41919;42.648;23.384;2023-03-01T08:54:06;4.18;;;2.42;;
56051;SDS011;41919;42.648;23.384;2023-03-01T08:56:36;2.33;;;2.10;;
56051;SDS011;41919;42.648;23.384;2023-03-01T08:59:02;2.30;;;2.10;;
56051;SDS011;41919;42.648;23.384;2023-03-01T09:01:27;1.92;;;1.65;;
56051;SDS011;41919;42.648;23.384;2023-03-01T09:03:53;3.45;;;2.00;;
56051;SDS011;41919;42.648;23.384;2023-03-01T09:06:18;1.75;;;1.50;;
56051;SDS011;41919;42.648;23.384;2023-03-01T09:08:45;3.05;;;1.80;;
56051;SDS011;41919;42.648;23.384;2023-03-01T09:11:19;1.30;;;1.20;;
56051;SDS011;41919;42.648;23.384;2023-03-01T09:13:46;3.38;;;1.80;;
56051;SDS011;41919;42.648;23.384;2023-03-01T09:16:13;5.60;;;1.30;;
56051;SDS011;41919;42.648;23.384;2023-03-01T09:18:41;2.15;;;1.55;;
56051;SDS011;41919;42.648;23.384;2023-03-01T09:21:08;5.47;;;2.50;;
56051;SDS011;41919;42.648;23.384;2023-03-01T09:23:36;1.00;;;1.00;;
56051;SDS011;41919;42.648;23.384;2023-03-01T09:26:07;1.42;;;1.00;;
56051;SDS011;41919;42.648;23.384;2023-03-01T09:28:34;1.13;;;1.02;;
56051;SDS011;41919;42.648;23.384;2023-03-01T09:31:00;0.70;;;0.70;;
56051;SDS011;41919;42.648;23.384;2023-03-01T09:33:27;1.50;;;0.98;;
56051;SDS011;41919;42.648;23.384;2023-03-01T09:36:01;2.15;;;1.75;;
56051;SDS011;41919;42.648;23.384;2023-03-01T09:38:29;0.90;;;0.90;;
56051;SDS011;41919;42.648;23.384;2023-03-01T09:40:54;2.60;;;1.20;;
56051;SDS011;41919;42.648;23.384;2023-03-01T09:43:22;1.63;;;0.77;;
56051;SDS011;41919;42.648;23.384;2023-03-01T09:45:49;1.05;;;0.95;;
56051;SDS011;41919;42.648;23.384;2023-03-01T09:48:19;1.33;;;0.80;;
56051;SDS011;41919;42.648;23.384;2023-03-01T09:50:49;0.80;;;0.80;;
56051;SDS011;41919;42.648;23.384;2023-03-01T09:53:16;1.70;;;1.10;;
56051;SDS011;41919;42.648;23.384;2023-03-01T09:56:00;1.20;;;1.10;;
56051;SDS011;41919;42.648;23.384;2023-03-01T10:09:35;1.80;;;1.10;;
56051;SDS011;41919;42.648;23.384;2023-03-01T10:12:04;1.67;;;1.30;;
56051;SDS011;41919;42.648;23.384;2023-03-01T10:19:45;1.92;;;1.05;;
56051;SDS011;41919;42.648;23.384;2023-03-01T10:22:19;2.47;;;1.10;;
56051;SDS011;41919;42.648;23.384;2023-03-01T10:24:46;0.93;;;0.93;;
56051;SDS011;41919;42.648;23.384;2023-03-01T10:32:19;1.45;;;0.93;;
56051;SDS011;41919;42.648;23.384;2023-03-01T10:34:46;1.20;;;1.05;;
56051;SDS011;41919;42.648;23.384;2023-03-01T10:37:16;2.08;;;1.10;;
56051;SDS011;41919;42.648;23.384;2023-03-01T10:39:57;1.77;;;1.17;;
56051;SDS011;41919;42.648;23.384;2023-03-01T10:42:32;2.55;;;1.30;;
56051;SDS011;41919;42.648;23.384;2023-03-01T10:45:46;1.30;;;1.20;;
56051;SDS011;41919;42.648;23.384;2023-03-01T10:47:55;1.48;;;1.17;;
56051;SDS011;41919;42.648;23.384;2023-03-01T10:50:36;2.35;;;1.10;;
56051;SDS011;41919;42.648;23.384;2023-03-01T10:53:03;3.03;;;1.48;;
56051;SDS011;41919;42.648;23.384;2023-03-01T10:55:36;1.27;;;1.17;;
56051;SDS011;41919;42.648;23.384;2023-03-01T10:58:19;2.38;;;1.20;;
56051;SDS011;41919;42.648;23.384;2023-03-01T11:03:35;1.70;;;1.58;;
56051;SDS011;41919;42.648;23.384;2023-03-01T11:08:35;3.25;;;1.30;;
56051;SDS011;41919;42.648;23.384;2023-03-01T11:16:07;2.22;;;1.30;;
56051;SDS011;41919;42.648;23.384;2023-03-01T11:18:37;1.55;;;1.35;;
56051;SDS011;41919;42.648;23.384;2023-03-01T11:21:02;3.05;;;1.60;;
56051;SDS011;41919;42.648;23.384;2023-03-01T11:23:30;1.85;;;1.02;;
56051;SDS011;41919;42.648;23.384;2023-03-01T11:26:05;2.13;;;1.73;;
56051;SDS011;41919;42.648;23.384;2023-03-01T11:28:34;2.33;;;1.77;;
56051;SDS011;41919;42.648;23.384;2023-03-01T11:31:08;1.58;;;1.48;;
56051;SDS011;41919;42.648;23.384;2023-03-01T11:33:44;1.45;;;1.30;;
56051;SDS011;41919;42.648;23.384;2023-03-01T11:38:48;2.08;;;1.45;;
56051;SDS011;41919;42.648;23.384;2023-03-01T11:41:20;3.00;;;2.03;;
56051;SDS011;41919;42.648;23.384;2023-03-01T11:44:00;2.08;;;1.73;;
56051;SDS011;41919;42.648;23.384;2023-03-01T11:51:37;2.60;;;2.05;;
56051;SDS011;41919;42.648;23.384;2023-03-01T11:56:52;2.95;;;2.13;;
56051;SDS011;41919;42.648;23.384;2023-03-01T12:04:54;2.13;;;1.92;;
56051;SDS011;41919;42.648;23.384;2023-03-01T12:10:28;2.75;;;2.20;;
56051;SDS011;41919;42.648;23.384;2023-03-01T12:16:22;2.67;;;1.98;;
56051;SDS011;41919;42.648;23.384;2023-03-01T12:21:35;3.58;;;2.28;;
56051;SDS011;41919;42.648;23.384;2023-03-01T12:24:35;4.53;;;2.58;;
56051;SDS011;41919;42.648;23.384;2023-03-01T12:51:24;2.97;;;2.35;;
56051;SDS011;41919;42.648;23.384;2023-03-01T12:53:55;3.38;;;2.30;;
56051;SDS011;41919;42.648;23.384;2023-03-01T12:56:24;2.92;;;2.40;;
56051;SDS011;41919;42.648;23.384;2023-03-01T13:02:23;3.55;;;2.63;;
56051;SDS011;41919;42.648;23.384;2023-03-01T13:13:26;2.30;;;1.98;;
56051;SDS011;41919;42.648;23.384;2023-03-01T13:15:53;2.28;;;1.80;;
56051;SDS011;41919;42.648;23.384;2023-03-01T13:20:47;2.30;;;1.48;;
56051;SDS011;41919;42.648;23.384;2023-03-01T13:28:40;4.10;;;2.35;;
56051;SDS011;41919;42.648;23.384;2023-03-01T13:33:48;4.65;;;1.98;;
56051;SDS011;41919;42.648;23.384;2023-03-01T13:36:56;2.92;;;1.90;;
56051;SDS011;41919;42.648;23.384;2023-03-01T13:39:03;1.95;;;1.70;;
56051;SDS011;41919;42.648;23.384;2023-03-01T13:41:52;3.10;;;1.70;;
56051;SDS011;41919;42.648;23.384;2023-03-01T13:57:39;2.65;;;1.77;;
56051;SDS011;41919;42.648;23.384;2023-03-01T14:03:01;1.80;;;1.70;;
56051;SDS011;41919;42.648;23.384;2023-03-01T14:05:29;2.53;;;1.75;;
56051;SDS011;41919;42.648;23.384;2023-03-01T14:07:55;4.18;;;1.60;;
56051;SDS011;41919;42.648;23.384;2023-03-01T14:10:20;4.90;;;1.90;;
56051;SDS011;41919;42.648;23.384;2023-03-01T14:12:54;2.22;;;1.75;;
56051;SDS011;41919;42.648;23.384;2023-03-01T14:16:00;2.92;;;1.42;;
56051;SDS011;41919;42.648;23.384;2023-03-01T14:18:32;2.78;;;1.20;;
56051;SDS011;41919;42.648;23.384;2023-03-01T14:23:33;2.05;;;1.40;;
56051;SDS011;41919;42.648;23.384;2023-03-01T14:26:00;3.40;;;1.60;;
56051;SDS011;41919;42.648;23.384;2023-03-01T14:28:30;2.60;;;1.70;;
56051;SDS011;41919;42.648;23.384;2023-03-01T14:31:02;1.85;;;1.42;;
56051;SDS011;41919;42.648;23.384;2023-03-01T14:33:30;2.53;;;1.95;;
56051;SDS011;41919;42.648;23.384;2023-03-01T14:38:38;3.70;;;2.03;;
56051;SDS011;41919;42.648;23.384;2023-03-01T14:41:38;2.47;;;2.13;;
56051;SDS011;41919;42.648;23.384;2023-03-01T14:46:32;1.85;;;1.50;;
56051;SDS011;41919;42.648;23.384;2023-03-01T14:49:02;4.22;;;2.05;;
56051;SDS011;41919;42.648;23.384;2023-03-01T14:51:36;7.57;;;2.75;;
56051;SDS011;41919;42.648;23.384;2023-03-01T14:54:03;3.40;;;1.40;;
56051;SDS011;41919;42.648;23.384;2023-03-01T14:56:45;3.53;;;1.70;;
56051;SDS011;41919;42.648;23.384;2023-03-01T14:59:11;2.45;;;1.60;;
56051;SDS011;41919;42.648;23.384;2023-03-01T15:01:37;3.15;;;1.58;;
56051;SDS011;41919;42.648;23.384;2023-03-01T15:04:03;5.10;;;2.40;;
56051;SDS011;41919;42.648;23.384;2023-03-01T15:06:30;4.53;;;2.17;;
56051;SDS011;41919;42.648;23.384;2023-03-01T15:08:55;3.30;;;1.92;;
56051;SDS011;41919;42.648;23.384;2023-03-01T15:11:23;3.03;;;1.83;;
56051;SDS011;41919;42.648;23.384;2023-03-01T15:13:52;4.90;;;2.05;;
56051;SDS011;41919;42.648;23.384;2023-03-01T15:16:20;2.47;;;1.63;;
56051;SDS011;41919;42.648;23.384;2023-03-01T15:18:56;3.90;;;2.30;;
56051;SDS011;41919;42.648;23.384;2023-03-01T15:21:35;2.85;;;1.90;;
56051;SDS011;41919;42.648;23.384;2023-03-01T15:26:44;3.33;;;1.98;;
56051;SDS011;41919;42.648;23.384;2023-03-01T15:29:31;7.65;;;2.60;;
56051;SDS011;41919;42.648;23.384;2023-03-01T15:31:59;3.85;;;2.03;;
56051;SDS011;41919;42.648;23.384;2023-03-01T15:34:38;5.05;;;2.78;;
56051;SDS011;41919;42.648;23.384;2023-03-01T15:37:04;3.72;;;2.38;;
56051;SDS011;41919;42.648;23.384;2023-03-01T15:39:56;6.05;;;3.08;;
56051;SDS011;41919;42.648;23.384;2023-03-01T15:44:50;4.75;;;3.13;;
56051;SDS011;41919;42.648;23.384;2023-03-01T15:50:41;3.55;;;2.35;;
56051;SDS011;41919;42.648;23.384;2023-03-01T15:53:11;3.28;;;1.98;;
56051;SDS011;41919;42.648;23.384;2023-03-01T15:55:42;5.22;;;2.42;;
56051;SDS011;41919;42.648;23.384;2023-03-01T15:58:14;3.53;;;2.05;;
56051;SDS011;41919;42.648;23.384;2023-03-01T16:00:40;4.53;;;2.23;;
56051;SDS011;41919;42.648;23.384;2023-03-01T16:03:07;5.85;;;2.45;;
56051;SDS011;41919;42.648;23.384;2023-03-01T16:05:37;2.22;;;1.63;;
56051;SDS011;41919;42.648;23.384;2023-03-01T16:08:03;3.63;;;2.33;;
56051;SDS011;41919;42.648;23.384;2023-03-01T16:10:33;3.92;;;2.00;;
56051;SDS011;41919;42.648;23.384;2023-03-01T16:13:00;4.18;;;2.25;;
56051;SDS011;41919;42.648;23.384;2023-03-01T16:15:29;5.05;;;2.72;;
56051;SDS011;41919;42.648;23.384;2023-03-01T16:17:56;4.15;;;1.88;;
56051;SDS011;41919;42.648;23.384;2023-03-01T16:20:23;1.98;;;1.45;;
56051;SDS011;41919;42.648;23.384;2023-03-01T16:22:49;4.28;;;1.80;;
56051;SDS011;41919;42.648;23.384;2023-03-01T16:25:16;1.60;;;1.20;;
56051;SDS011;41919;42.648;23.384;2023-03-01T16:27:44;2.40;;;1.40;;
56051;SDS011;41919;42.648;23.384;2023-03-01T16:30:11;2.83;;;1.35;;
56051;SDS011;41919;42.648;23.384;2023-03-01T16:32:38;4.35;;;1.73;;
56051;SDS011;41919;42.648;23.384;2023-03-01T16:35:08;4.38;;;2.25;;
56051;SDS011;41919;42.648;23.384;2023-03-01T16:37:35;3.70;;;2.35;;
56051;SDS011;41919;42.648;23.384;2023-03-01T16:40:02;2.45;;;1.42;;
56051;SDS011;41919;42.648;23.384;2023-03-01T16:42:33;4.18;;;1.95;;
56051;SDS011;41919;42.648;23.384;2023-03-01T16:44:59;1.50;;;1.40;;
56051;SDS011;41919;42.648;23.384;2023-03-01T16:47:25;2.10;;;1.30;;
56051;SDS011;41919;42.648;23.384;2023-03-01T16:49:53;4.70;;;2.38;;
56051;SDS011;41919;42.648;23.384;2023-03-01T16:52:19;5.20;;;2.35;;
56051;SDS011;41919;42.648;23.384;2023-03-01T16:54:46;4.30;;;2.03;;
56051;SDS011;41919;42.648;23.384;2023-03-01T16:57:12;4.55;;;2.67;;
56051;SDS011;41919;42.648;23.384;2023-03-01T16:59:37;2.95;;;1.77;;
56051;SDS011;41919;42.648;23.384;2023-03-01T17:02:03;2.78;;;1.63;;
56051;SDS011;41919;42.648;23.384;2023-03-01T17:04:30;2.13;;;1.40;;
56051;SDS011;41919;42.648;23.384;2023-03-01T17:06:56;1.55;;;1.30;;
56051;SDS011;41919;42.648;23.384;2023-03-01T17:09:21;3.55;;;1.65;;
56051;SDS011;41919;42.648;23.384;2023-03-01T17:11:47;9.90;;;2.60;;
56051;SDS011;41919;42.648;23.384;2023-03-01T17:14:14;3.03;;;2.13;;
56051;SDS011;41919;42.648;23.384;2023-03-01T17:16:43;3.42;;;1.92;;
56051;SDS011;41919;42.648;23.384;2023-03-01T17:19:09;6.07;;;2.85;;
56051;SDS011;41919;42.648;23.384;2023-03-01T17:21:35;3.65;;;1.92;;
56051;SDS011;41919;42.648;23.384;2023-03-01T17:24:01;3.53;;;2.08;;
56051;SDS011;41919;42.648;23.384;2023-03-01T17:26:27;4.20;;;2.08;;
56051;SDS011;41919;42.648;23.384;2023-03-01T17:28:54;3.10;;;2.00;;
56051;SDS011;41919;42.648;23.384;2023-03-01T17:31:20;6.25;;;2.55;;
56051;SDS011;41919;42.648;23.384;2023-03-01T17:33:46;5.25;;;2.92;;
56051;SDS011;41919;42.648;23.384;2023-03-01T17:36:11;3.35;;;1.83;;
56051;SDS011;41919;42.648;23.384;2023-03-01T17:38:37;4.80;;;2.38;;
56051;SDS011;41919;42.648;23.384;2023-03-01T17:41:03;6.20;;;3.17;;
56051;SDS011;41919;42.648;23.384;2023-03-01T17:43:29;5.97;;;3.08;;
56051;SDS011;41919;42.648;23.384;2023-03-01T17:45:55;3.47;;;2.47;;
56051;SDS011;41919;42.648;23.384;2023-03-01T17:48:21;5.07;;;2.60;;
56051;SDS011;41919;42.648;23.384;2023-03-01T17:50:47;4.10;;;2.30;;
56051;SDS011;41919;42.648;23.384;2023-03-01T17:53:13;6.80;;;2.88;;
56051;SDS011;41919;42.648;23.384;2023-03-01T17:55:39;5.97;;;3.33;;
56051;SDS011;41919;42.648;23.384;2023-03-01T17:58:07;5.50;;;2.70;;
56051;SDS011;41919;42.648;23.384;2023-03-01T18:00:34;6.05;;;3.22;;
56051;SDS011;41919;42.648;23.384;2023-03-01T18:03:00;7.88;;;3.10;;
56051;SDS011;41919;42.648;23.384;2023-03-01T18:05:27;6.65;;;3.65;;
56051;SDS011;41919;42.648;23.384;2023-03-01T18:07:55;7.15;;;3.08;;
56051;SDS011;41919;42.648;23.384;2023-03-01T18:10:20;4.60;;;2.45;;
56051;SDS011;41919;42.648;23.384;2023-03-01T18:12:46;5.88;;;3.05;;
56051;SDS011;41919;42.648;23.384;2023-03-01T18:15:11;4.75;;;2.95;;
56051;SDS011;41919;42.648;23.384;2023-03-01T18:17:37;5.45;;;2.92;;
56051;SDS011;41919;42.648;23.384;2023-03-01T18:20:03;4.18;;;2.63;;
56051;SDS011;41919;42.648;23.384;2023-03-01T18:22:31;5.95;;;2.95;;
56051;SDS011;41919;42.648;23.384;2023-03-01T18:24:57;6.13;;;3.35;;
56051;SDS011;41919;42.648;23.384;2023-03-01T18:27:23;7.75;;;4.03;;
56051;SDS011;41919;42.648;23.384;2023-03-01T18:29:49;10.18;;;4.45;;
56051;SDS011;41919;42.648;23.384;2023-03-01T18:32:14;9.15;;;4.68;;
56051;SDS011;41919;42.648;23.384;2023-03-01T18:34:39;8.75;;;4.45;;
56051;SDS011;41919;42.648;23.384;2023-03-01T18:37:05;9.93;;;4.28;;
56051;SDS011;41919;42.648;23.384;2023-03-01T18:39:31;11.13;;;5.05;;
56051;SDS011;41919;42.648;23.384;2023-03-01T18:41:56;9.88;;;4.30;;
56051;SDS011;41919;42.648;23.384;2023-03-01T18:44:22;10.23;;;5.40;;
56051;SDS011;41919;42.648;23.384;2023-03-01T18:46:47;9.07;;;5.07;;
56051;SDS011;41919;42.648;23.384;2023-03-01T18:49:13;7.82;;;3.63;;
56051;SDS011;41919;42.648;23.384;2023-03-01T18:51:39;10.38;;;4.88;;
56051;SDS011;41919;42.648;23.384;2023-03-01T18:54:06;10.52;;;5.22;;
56051;SDS011;41919;42.648;23.384;2023-03-01T18:56:32;8.70;;;5.18;;
56051;SDS011;41919;42.648;23.384;2023-03-01T18:58:59;10.05;;;4.57;;
56051;SDS011;41919;42.648;23.384;2023-03-01T19:01:25;9.85;;;4.53;;
56051;SDS011;41919;42.648;23.384;2023-03-01T19:03:53;10.75;;;5.53;;
56051;SDS011;41919;42.648;23.384;2023-03-01T19:06:20;10.52;;;4.70;;
56051;SDS011;41919;42.648;23.384;2023-03-01T19:08:47;11.32;;;5.95;;
56051;SDS011;41919;42.648;23.384;2023-03-01T19:11:14;12.82;;;6.65;;
56051;SDS011;41919;42.648;23.384;2023-03-01T19:13:43;11.40;;;5.13;;
56051;SDS011;41919;42.648;23.384;2023-03-01T19:16:14;11.80;;;5.18;;
56051;SDS011;41919;42.648;23.384;2023-03-01T19:18:43;7.47;;;4.35;;
56051;SDS011;41919;42.648;23.384;2023-03-01T19:21:14;10.27;;;5.32;;
56051;SDS011;41919;42.648;23.384;2023-03-01T19:23:41;9.40;;;4.80;;
56051;SDS011;41919;42.648;23.384;2023-03-01T19:26:08;10.52;;;5.22;;
56051;SDS011;41919;42.648;23.384;2023-03-01T19:28:35;9.88;;;5.10;;
56051;SDS011;41919;42.648;23.384;2023-03-01T19:31:03;7.30;;;4.80;;
56051;SDS011;41919;42.648;23.384;2023-03-01T19:33:31;10.32;;;4.68;;
56051;SDS011;41919;42.648;23.384;2023-03-01T19:35:58;15.45;;;5.65;;
56051;SDS011;41919;42.648;23.384;2023-03-01T19:38:24;11.15;;;5.65;;
56051;SDS011;41919;42.648;23.384;2023-03-01T19:40:51;10.00;;;5.28;;
56051;SDS011;41919;42.648;23.384;2023-03-01T19:43:17;11.13;;;5.20;;
56051;SDS011;41919;42.648;23.384;2023-03-01T19:45:43;9.63;;;5.15;;
56051;SDS011;41919;42.648;23.384;2023-03-01T19:48:10;13.52;;;5.65;;
56051;SDS011;41919;42.648;23.384;2023-03-01T19:50:36;7.93;;;4.20;;
56051;SDS011;41919;42.648;23.384;2023-03-01T19:53:02;12.02;;;6.00;;
56051;SDS011;41919;42.648;23.384;2023-03-01T19:55:28;11.90;;;5.38;;
56051;SDS011;41919;42.648;23.384;2023-03-01T19:57:54;10.82;;;6.00;;
56051;SDS011;41919;42.648;23.384;2023-03-01T20:00:19;11.77;;;5.38;;
56051;SDS011;41919;42.648;23.384;2023-03-01T20:02:45;10.50;;;5.22;;
56051;SDS011;41919;42.648;23.384;2023-03-01T20:05:10;9.13;;;5.28;;
56051;SDS011;41919;42.648;23.384;2023-03-01T20:07:36;7.35;;;4.30;;
56051;SDS011;41919;42.648;23.384;2023-03-01T20:10:01;9.95;;;5.35;;
56051;SDS011;41919;42.648;23.384;2023-03-01T20:12:26;10.25;;;5.55;;
56051;SDS011;41919;42.648;23.384;2023-03-01T20:14:52;11.63;;;6.07;;
56051;SDS011;41919;42.648;23.384;2023-03-01T20:17:19;10.52;;;4.93;;
56051;SDS011;41919;42.648;23.384;2023-03-01T20:19:45;8.23;;;5.15;;
56051;SDS011;41919;42.648;23.384;2023-03-01T20:22:11;8.98;;;5.28;;
56051;SDS011;41919;42.648;23.384;2023-03-01T20:24:39;11.35;;;5.50;;
56051;SDS011;41919;42.648;23.384;2023-03-01T20:27:05;12.80;;;6.18;;
56051;SDS011;41919;42.648;23.384;2023-03-01T20:29:31;10.80;;;6.03;;
56051;SDS011;41919;42.648;23.384;2023-03-01T20:31:57;11.35;;;5.45;;
56051;SDS011;41919;42.648;23.384;2023-03-01T20:34:22;9.43;;;4.93;;
56051;SDS011;41919;42.648;23.384;2023-03-01T20:36:48;9.38;;;5.15;;
56051;SDS011;41919;42.648;23.384;2023-03-01T20:39:14;11.02;;;5.15;;
56051;SDS011;41919;42.648;23.384;2023-03-01T20:41:39;9.45;;;4.93;;
56051;SDS011;41919;42.648;23.384;2023-03-01T20:44:05;7.00;;;3.90;;
56051;SDS011;41919;42.648;23.384;2023-03-01T20:46:31;9.32;;;4.53;;
56051;SDS011;41919;42.648;23.384;2023-03-01T20:48:57;11.07;;;5.53;;
56051;SDS011;41919;42.648;23.384;2023-03-01T20:51:23;11.55;;;5.80;;
56051;SDS011;41919;42.648;23.384;2023-03-01T20:53:49;10.00;;;5.40;;
56051;SDS011;41919;42.648;23.384;2023-03-01T20:56:15;10.18;;;5.88;;
56051;SDS011;41919;42.648;23.384;2023-03-01T20:58:42;8.52;;;4.53;;
56051;SDS011;41919;42.648;23.384;2023-03-01T21:01:08;10.48;;;4.68;;
56051;SDS011;41919;42.648;23.384;2023-03-01T21:03:38;12.27;;;5.40;;
56051;SDS011;41919;42.648;23.384;2023-03-01T21:06:03;13.88;;;6.18;;
56051;SDS011;41919;42.648;23.384;2023-03-01T21:08:30;10.52;;;5.90;;
56051;SDS011;41919;42.648;23.384;2023-03-01T21:10:57;11.23;;;5.50;;
56051;SDS011;41919;42.648;23.384;2023-03-01T21:13:23;14.05;;;6.93;;
56051;SDS011;41919;42.648;23.384;2023-03-01T21:18:34;12.48;;;6.35;;
56051;SDS011;41919;42.648;23.384;2023-03-01T21:23:28;14.35;;;6.68;;
56051;SDS011;41919;42.648;23.384;2023-03-01T21:26:28;12.73;;;6.53;;
56051;SDS011;41919;42.648;23.384;2023-03-01T21:28:52;12.48;;;5.65;;
56051;SDS011;41919;42.648;23.384;2023-03-01T21:31:21;11.07;;;5.97;;
56051;SDS011;41919;42.648;23.384;2023-03-01T21:33:48;12.18;;;5.70;;
56051;SDS011;41919;42.648;23.384;2023-03-01T21:36:16;10.57;;;5.57;;